sensor_id;sensor_type;location;lat;lon;timestamp;temperature;humidity
42715;DHT22;28351;51.480;5.706;2022-10-16T00:02:05;12.70;99.90
42715;DHT22;28351;51.480;5.706;2022-10-16T00:04:31;12.70;99.90
42715;DHT22;28351;51.480;5.706;2022-10-16T00:06:56;12.60;99.90
42715;DHT22;28351;51.480;5.706;2022-10-16T00:09:22;12.70;99.90
42715;DHT22;28351;51.480;5.706;2022-10-16T00:11:48;12.70;99.90
42715;DHT22;28351;51.480;5.706;2022-10-16T00:14:14;12.60;99.90
42715;DHT22;28351;51.480;5.706;2022-10-16T00:16:40;12.60;99.90
42715;DHT22;28351;51.480;5.706;2022-10-16T00:19:06;12.60;99.90
42715;DHT22;28351;51.480;5.706;2022-10-16T00:21:33;12.50;99.90
42715;DHT22;28351;51.480;5.706;2022-10-16T00:24:07;12.50;99.90
42715;DHT22;28351;51.480;5.706;2022-10-16T00:26:37;12.60;99.90
42715;DHT22;28351;51.480;5.706;2022-10-16T00:29:03;12.50;99.90
42715;DHT22;28351;51.480;5.706;2022-10-16T00:31:29;12.50;99.90
42715;DHT22;28351;51.480;5.706;2022-10-16T00:33:55;12.50;99.90
42715;DHT22;28351;51.480;5.706;2022-10-16T00:36:23;12.40;99.90
42715;DHT22;28351;51.480;5.706;2022-10-16T00:38:53;12.40;99.90
42715;DHT22;28351;51.480;5.706;2022-10-16T00:41:20;12.40;99.90
42715;DHT22;28351;51.480;5.706;2022-10-16T00:51:43;12.10;99.90
42715;DHT22;28351;51.480;5.706;2022-10-16T00:54:19;12.10;99.90
42715;DHT22;28351;51.480;5.706;2022-10-16T00:56:46;12.00;99.90
42715;DHT22;28351;51.480;5.706;2022-10-16T00:59:26;12.00;99.90
42715;DHT22;28351;51.480;5.706;2022-10-16T01:01:53;11.90;99.90
42715;DHT22;28351;51.480;5.706;2022-10-16T01:04:23;12.00;99.90
42715;DHT22;28351;51.480;5.706;2022-10-16T01:09:32;11.90;99.90
42715;DHT22;28351;51.480;5.706;2022-10-16T01:14:48;11.90;99.90
42715;DHT22;28351;51.480;5.706;2022-10-16T01:17:41;11.80;99.90
42715;DHT22;28351;51.480;5.706;2022-10-16T01:20:14;11.80;99.90
42715;DHT22;28351;51.480;5.706;2022-10-16T01:25:22;11.80;99.90
42715;DHT22;28351;51.480;5.706;2022-10-16T01:27:57;11.80;99.90
42715;DHT22;28351;51.480;5.706;2022-10-16T01:30:28;11.80;99.90
42715;DHT22;28351;51.480;5.706;2022-10-16T01:33:03;11.70;99.90
42715;DHT22;28351;51.480;5.706;2022-10-16T01:35:53;11.70;99.90
42715;DHT22;28351;51.480;5.706;2022-10-16T01:38:25;11.70;99.90
42715;DHT22;28351;51.480;5.706;2022-10-16T01:40:58;11.70;99.90
42715;DHT22;28351;51.480;5.706;2022-10-16T01:43:33;11.60;99.90
42715;DHT22;28351;51.480;5.706;2022-10-16T01:46:01;11.60;99.90
42715;DHT22;28351;51.480;5.706;2022-10-16T01:48:28;11.60;99.90
42715;DHT22;28351;51.480;5.706;2022-10-16T01:51:03;11.60;99.90
42715;DHT22;28351;51.480;5.706;2022-10-16T01:53:31;11.60;99.90
42715;DHT22;28351;51.480;5.706;2022-10-16T01:55:58;11.60;99.90
42715;DHT22;28351;51.480;5.706;2022-10-16T01:58:25;11.50;99.90
42715;DHT22;28351;51.480;5.706;2022-10-16T02:00:54;11.50;99.90
42715;DHT22;28351;51.480;5.706;2022-10-16T02:03:20;11.60;99.90
42715;DHT22;28351;51.480;5.706;2022-10-16T02:05:51;11.50;99.90
42715;DHT22;28351;51.480;5.706;2022-10-16T02:08:18;11.60;99.90
42715;DHT22;28351;51.480;5.706;2022-10-16T02:10:44;11.70;99.90
42715;DHT22;28351;51.480;5.706;2022-10-16T02:13:17;11.90;99.90
42715;DHT22;28351;51.480;5.706;2022-10-16T02:15:43;12.00;99.90
42715;DHT22;28351;51.480;5.706;2022-10-16T02:18:09;11.90;99.90
42715;DHT22;28351;51.480;5.706;2022-10-16T02:23:41;11.90;99.90
42715;DHT22;28351;51.480;5.706;2022-10-16T02:26:15;11.90;99.90
42715;DHT22;28351;51.480;5.706;2022-10-16T02:28:52;11.90;99.90
42715;DHT22;28351;51.480;5.706;2022-10-16T02:31:23;11.80;99.90
42715;DHT22;28351;51.480;5.706;2022-10-16T02:33:51;11.80;99.90
42715;DHT22;28351;51.480;5.706;2022-10-16T02:36:18;11.80;99.90
42715;DHT22;28351;51.480;5.706;2022-10-16T02:38:44;11.70;99.90
42715;DHT22;28351;51.480;5.706;2022-10-16T02:41:10;11.70;99.90
42715;DHT22;28351;51.480;5.706;2022-10-16T02:43:35;11.80;99.90
42715;DHT22;28351;51.480;5.706;2022-10-16T02:46:01;11.70;99.90
42715;DHT22;28351;51.480;5.706;2022-10-16T02:48:26;11.60;99.90
42715;DHT22;28351;51.480;5.706;2022-10-16T02:50:52;11.60;99.90
42715;DHT22;28351;51.480;5.706;2022-10-16T02:53:18;11.60;99.90
42715;DHT22;28351;51.480;5.706;2022-10-16T02:55:46;11.60;99.90
42715;DHT22;28351;51.480;5.706;2022-10-16T02:58:11;11.60;99.90
42715;DHT22;28351;51.480;5.706;2022-10-16T03:00:37;11.50;99.90
42715;DHT22;28351;51.480;5.706;2022-10-16T03:03:03;11.50;99.90
42715;DHT22;28351;51.480;5.706;2022-10-16T03:05:31;11.50;99.90
42715;DHT22;28351;51.480;5.706;2022-10-16T03:07:56;11.50;99.90
42715;DHT22;28351;51.480;5.706;2022-10-16T03:10:25;11.50;99.90
42715;DHT22;28351;51.480;5.706;2022-10-16T03:12:50;11.50;99.90
42715;DHT22;28351;51.480;5.706;2022-10-16T03:15:16;11.50;99.90
42715;DHT22;28351;51.480;5.706;2022-10-16T03:17:42;11.50;99.90
42715;DHT22;28351;51.480;5.706;2022-10-16T03:20:08;11.60;99.90
42715;DHT22;28351;51.480;5.706;2022-10-16T03:22:34;11.60;99.90
42715;DHT22;28351;51.480;5.706;2022-10-16T03:24:59;11.60;99.90
42715;DHT22;28351;51.480;5.706;2022-10-16T03:27:25;11.50;99.90
42715;DHT22;28351;51.480;5.706;2022-10-16T03:29:52;11.60;99.90
42715;DHT22;28351;51.480;5.706;2022-10-16T03:32:20;11.60;99.90
42715;DHT22;28351;51.480;5.706;2022-10-16T03:34:46;11.60;99.90
42715;DHT22;28351;51.480;5.706;2022-10-16T03:37:12;11.60;99.90
42715;DHT22;28351;51.480;5.706;2022-10-16T03:39:38;11.60;99.90
42715;DHT22;28351;51.480;5.706;2022-10-16T03:42:03;11.70;99.90
42715;DHT22;28351;51.480;5.706;2022-10-16T03:44:32;11.70;99.90
42715;DHT22;28351;51.480;5.706;2022-10-16T03:46:59;11.80;99.90
42715;DHT22;28351;51.480;5.706;2022-10-16T03:49:25;11.70;99.90
42715;DHT22;28351;51.480;5.706;2022-10-16T03:51:50;11.70;99.90
42715;DHT22;28351;51.480;5.706;2022-10-16T03:54:16;11.70;99.90
42715;DHT22;28351;51.480;5.706;2022-10-16T03:56:43;11.80;99.90
42715;DHT22;28351;51.480;5.706;2022-10-16T03:59:09;11.80;99.90
42715;DHT22;28351;51.480;5.706;2022-10-16T04:01:35;11.80;99.90
42715;DHT22;28351;51.480;5.706;2022-10-16T04:04:00;11.80;99.90
42715;DHT22;28351;51.480;5.706;2022-10-16T04:06:26;11.80;99.90
42715;DHT22;28351;51.480;5.706;2022-10-16T04:08:53;11.80;99.90
42715;DHT22;28351;51.480;5.706;2022-10-16T04:11:18;11.80;99.90
42715;DHT22;28351;51.480;5.706;2022-10-16T04:13:45;11.80;99.90
42715;DHT22;28351;51.480;5.706;2022-10-16T04:16:11;11.80;99.90
42715;DHT22;28351;51.480;5.706;2022-10-16T04:18:36;11.80;99.90
42715;DHT22;28351;51.480;5.706;2022-10-16T04:21:06;11.80;99.90
42715;DHT22;28351;51.480;5.706;2022-10-16T04:23:32;11.80;99.90
42715;DHT22;28351;51.480;5.706;2022-10-16T04:25:58;11.90;99.90
42715;DHT22;28351;51.480;5.706;2022-10-16T04:28:23;11.90;99.90
42715;DHT22;28351;51.480;5.706;2022-10-16T04:30:49;11.90;99.90
42715;DHT22;28351;51.480;5.706;2022-10-16T04:33:14;11.90;99.90
42715;DHT22;28351;51.480;5.706;2022-10-16T04:35:40;11.90;99.90
42715;DHT22;28351;51.480;5.706;2022-10-16T04:38:07;12.00;99.90
42715;DHT22;28351;51.480;5.706;2022-10-16T04:40:33;12.00;99.90
42715;DHT22;28351;51.480;5.706;2022-10-16T04:43:05;12.00;99.90
42715;DHT22;28351;51.480;5.706;2022-10-16T04:45:31;12.10;99.90
42715;DHT22;28351;51.480;5.706;2022-10-16T04:47:58;12.10;99.90
42715;DHT22;28351;51.480;5.706;2022-10-16T04:50:30;12.10;99.90
42715;DHT22;28351;51.480;5.706;2022-10-16T04:52:58;12.00;99.90
42715;DHT22;28351;51.480;5.706;2022-10-16T04:55:25;11.90;99.90
42715;DHT22;28351;51.480;5.706;2022-10-16T04:57:51;11.90;99.90
42715;DHT22;28351;51.480;5.706;2022-10-16T05:00:16;11.90;99.90
42715;DHT22;28351;51.480;5.706;2022-10-16T05:02:42;12.00;99.90
42715;DHT22;28351;51.480;5.706;2022-10-16T05:05:08;11.90;99.90
42715;DHT22;28351;51.480;5.706;2022-10-16T05:07:33;11.80;99.90
42715;DHT22;28351;51.480;5.706;2022-10-16T05:09:59;11.80;99.90
42715;DHT22;28351;51.480;5.706;2022-10-16T05:12:24;11.80;99.90
42715;DHT22;28351;51.480;5.706;2022-10-16T05:14:50;11.90;99.90
42715;DHT22;28351;51.480;5.706;2022-10-16T05:17:16;11.90;99.90
42715;DHT22;28351;51.480;5.706;2022-10-16T05:19:41;11.90;99.90
42715;DHT22;28351;51.480;5.706;2022-10-16T05:22:07;11.90;99.90
42715;DHT22;28351;51.480;5.706;2022-10-16T05:24:36;12.00;99.90
42715;DHT22;28351;51.480;5.706;2022-10-16T05:27:01;11.90;99.90
42715;DHT22;28351;51.480;5.706;2022-10-16T05:29:27;11.90;99.90
42715;DHT22;28351;51.480;5.706;2022-10-16T05:31:53;11.90;99.90
42715;DHT22;28351;51.480;5.706;2022-10-16T05:34:19;12.00;99.90
42715;DHT22;28351;51.480;5.706;2022-10-16T05:36:45;12.00;99.90
42715;DHT22;28351;51.480;5.706;2022-10-16T05:39:11;11.90;99.90
42715;DHT22;28351;51.480;5.706;2022-10-16T05:41:37;11.90;99.90
42715;DHT22;28351;51.480;5.706;2022-10-16T05:44:05;11.80;99.90
42715;DHT22;28351;51.480;5.706;2022-10-16T05:46:32;11.70;99.90
42715;DHT22;28351;51.480;5.706;2022-10-16T05:48:57;11.70;99.90
42715;DHT22;28351;51.480;5.706;2022-10-16T05:51:23;11.60;99.90
42715;DHT22;28351;51.480;5.706;2022-10-16T05:53:49;11.70;99.90
42715;DHT22;28351;51.480;5.706;2022-10-16T05:56:14;11.70;99.90
42715;DHT22;28351;51.480;5.706;2022-10-16T05:58:41;11.70;99.90
42715;DHT22;28351;51.480;5.706;2022-10-16T06:01:12;11.60;99.90
42715;DHT22;28351;51.480;5.706;2022-10-16T06:03:37;11.70;99.90
42715;DHT22;28351;51.480;5.706;2022-10-16T06:06:14;11.70;99.90
42715;DHT22;28351;51.480;5.706;2022-10-16T06:08:41;11.80;99.90
42715;DHT22;28351;51.480;5.706;2022-10-16T06:11:10;11.80;99.90
42715;DHT22;28351;51.480;5.706;2022-10-16T06:13:36;11.70;99.90
42715;DHT22;28351;51.480;5.706;2022-10-16T06:16:01;11.70;99.90
42715;DHT22;28351;51.480;5.706;2022-10-16T06:18:29;11.60;99.90
42715;DHT22;28351;51.480;5.706;2022-10-16T06:20:56;11.70;99.90
42715;DHT22;28351;51.480;5.706;2022-10-16T06:23:22;11.70;99.90
42715;DHT22;28351;51.480;5.706;2022-10-16T06:25:48;11.70;99.90
42715;DHT22;28351;51.480;5.706;2022-10-16T06:28:14;11.80;99.90
42715;DHT22;28351;51.480;5.706;2022-10-16T06:30:40;11.80;99.90
42715;DHT22;28351;51.480;5.706;2022-10-16T06:33:06;11.90;99.90
42715;DHT22;28351;51.480;5.706;2022-10-16T06:35:31;11.80;99.90
42715;DHT22;28351;51.480;5.706;2022-10-16T06:37:57;11.80;99.90
42715;DHT22;28351;51.480;5.706;2022-10-16T06:40:23;11.80;99.90
42715;DHT22;28351;51.480;5.706;2022-10-16T06:42:49;11.70;99.90
42715;DHT22;28351;51.480;5.706;2022-10-16T06:45:15;11.80;99.90
42715;DHT22;28351;51.480;5.706;2022-10-16T06:47:41;11.90;99.90
42715;DHT22;28351;51.480;5.706;2022-10-16T06:50:06;11.80;99.90
42715;DHT22;28351;51.480;5.706;2022-10-16T06:52:33;11.80;99.90
42715;DHT22;28351;51.480;5.706;2022-10-16T06:54:59;11.80;99.90
42715;DHT22;28351;51.480;5.706;2022-10-16T06:57:25;11.80;99.90
42715;DHT22;28351;51.480;5.706;2022-10-16T06:59:51;11.80;99.90
42715;DHT22;28351;51.480;5.706;2022-10-16T07:02:16;11.80;99.90
42715;DHT22;28351;51.480;5.706;2022-10-16T07:04:42;11.80;99.90
42715;DHT22;28351;51.480;5.706;2022-10-16T07:07:07;11.80;99.90
42715;DHT22;28351;51.480;5.706;2022-10-16T07:09:33;12.00;99.90
42715;DHT22;28351;51.480;5.706;2022-10-16T07:11:58;12.00;99.90
42715;DHT22;28351;51.480;5.706;2022-10-16T07:14:24;12.10;99.90
42715;DHT22;28351;51.480;5.706;2022-10-16T07:16:50;12.20;99.90
42715;DHT22;28351;51.480;5.706;2022-10-16T07:19:16;12.30;99.90
42715;DHT22;28351;51.480;5.706;2022-10-16T07:21:43;12.40;99.90
42715;DHT22;28351;51.480;5.706;2022-10-16T07:24:14;12.40;99.90
42715;DHT22;28351;51.480;5.706;2022-10-16T07:26:41;12.50;99.90
42715;DHT22;28351;51.480;5.706;2022-10-16T07:29:12;12.60;99.90
42715;DHT22;28351;51.480;5.706;2022-10-16T07:31:39;12.60;99.90
42715;DHT22;28351;51.480;5.706;2022-10-16T07:34:05;12.70;99.90
42715;DHT22;28351;51.480;5.706;2022-10-16T07:36:31;12.80;99.90
42715;DHT22;28351;51.480;5.706;2022-10-16T07:38:57;12.80;99.90
42715;DHT22;28351;51.480;5.706;2022-10-16T07:41:22;12.80;99.90
42715;DHT22;28351;51.480;5.706;2022-10-16T07:43:50;12.90;99.90
42715;DHT22;28351;51.480;5.706;2022-10-16T07:46:16;13.10;99.90
42715;DHT22;28351;51.480;5.706;2022-10-16T07:48:43;13.20;99.90
42715;DHT22;28351;51.480;5.706;2022-10-16T07:51:11;13.20;99.90
42715;DHT22;28351;51.480;5.706;2022-10-16T07:53:37;13.20;99.90
42715;DHT22;28351;51.480;5.706;2022-10-16T07:56:05;13.30;99.90
42715;DHT22;28351;51.480;5.706;2022-10-16T07:58:32;13.40;99.90
42715;DHT22;28351;51.480;5.706;2022-10-16T08:00:58;13.50;99.90
42715;DHT22;28351;51.480;5.706;2022-10-16T08:03:25;13.50;99.90
42715;DHT22;28351;51.480;5.706;2022-10-16T08:05:50;13.70;99.90
42715;DHT22;28351;51.480;5.706;2022-10-16T08:08:17;13.80;99.90
42715;DHT22;28351;51.480;5.706;2022-10-16T08:10:44;13.80;99.90
42715;DHT22;28351;51.480;5.706;2022-10-16T08:13:09;13.90;99.90
42715;DHT22;28351;51.480;5.706;2022-10-16T08:15:35;14.00;99.90
42715;DHT22;28351;51.480;5.706;2022-10-16T08:18:03;14.00;99.90
42715;DHT22;28351;51.480;5.706;2022-10-16T08:20:29;14.10;99.90
42715;DHT22;28351;51.480;5.706;2022-10-16T08:22:59;14.10;99.90
42715;DHT22;28351;51.480;5.706;2022-10-16T08:25:25;14.20;99.90
42715;DHT22;28351;51.480;5.706;2022-10-16T08:27:51;14.30;99.90
42715;DHT22;28351;51.480;5.706;2022-10-16T08:30:18;14.40;99.90
42715;DHT22;28351;51.480;5.706;2022-10-16T08:32:44;14.50;99.90
42715;DHT22;28351;51.480;5.706;2022-10-16T08:35:11;14.60;99.90
42715;DHT22;28351;51.480;5.706;2022-10-16T08:37:38;14.70;99.90
42715;DHT22;28351;51.480;5.706;2022-10-16T08:40:06;14.70;99.90
42715;DHT22;28351;51.480;5.706;2022-10-16T08:45:29;14.80;99.90
42715;DHT22;28351;51.480;5.706;2022-10-16T08:48:20;14.80;99.90
42715;DHT22;28351;51.480;5.706;2022-10-16T08:50:48;14.80;99.90
42715;DHT22;28351;51.480;5.706;2022-10-16T08:53:20;14.90;99.90
42715;DHT22;28351;51.480;5.706;2022-10-16T08:55:51;14.90;99.90
42715;DHT22;28351;51.480;5.706;2022-10-16T08:58:22;15.00;99.90
42715;DHT22;28351;51.480;5.706;2022-10-16T09:00:57;15.00;99.90
42715;DHT22;28351;51.480;5.706;2022-10-16T09:17:22;15.40;99.90
42715;DHT22;28351;51.480;5.706;2022-10-16T09:22:37;15.50;99.90
42715;DHT22;28351;51.480;5.706;2022-10-16T09:25:12;15.70;99.90
42715;DHT22;28351;51.480;5.706;2022-10-16T09:27:48;15.70;99.90
42715;DHT22;28351;51.480;5.706;2022-10-16T09:30:19;15.70;99.90
42715;DHT22;28351;51.480;5.706;2022-10-16T09:32:47;15.90;99.90
42715;DHT22;28351;51.480;5.706;2022-10-16T09:35:31;16.00;99.90
42715;DHT22;28351;51.480;5.706;2022-10-16T09:37:58;16.00;99.90
42715;DHT22;28351;51.480;5.706;2022-10-16T09:40:31;16.20;99.90
42715;DHT22;28351;51.480;5.706;2022-10-16T09:43:26;16.20;99.90
42715;DHT22;28351;51.480;5.706;2022-10-16T09:46:00;16.10;99.90
42715;DHT22;28351;51.480;5.706;2022-10-16T09:48:47;16.20;99.90
42715;DHT22;28351;51.480;5.706;2022-10-16T09:51:34;16.20;99.90
42715;DHT22;28351;51.480;5.706;2022-10-16T09:56:35;16.50;99.90
42715;DHT22;28351;51.480;5.706;2022-10-16T09:59:19;16.80;99.90
42715;DHT22;28351;51.480;5.706;2022-10-16T10:01:49;17.00;99.90
42715;DHT22;28351;51.480;5.706;2022-10-16T10:04:17;17.00;99.90
42715;DHT22;28351;51.480;5.706;2022-10-16T10:06:51;16.80;99.90
42715;DHT22;28351;51.480;5.706;2022-10-16T10:11:50;16.90;99.90
42715;DHT22;28351;51.480;5.706;2022-10-16T10:16:42;17.10;99.90
42715;DHT22;28351;51.480;5.706;2022-10-16T10:22:30;17.40;99.90
42715;DHT22;28351;51.480;5.706;2022-10-16T10:25:12;17.60;99.90
42715;DHT22;28351;51.480;5.706;2022-10-16T10:33:28;18.10;99.90
42715;DHT22;28351;51.480;5.706;2022-10-16T10:36:39;18.10;99.90
42715;DHT22;28351;51.480;5.706;2022-10-16T10:50:25;19.40;99.90
42715;DHT22;28351;51.480;5.706;2022-10-16T10:55:46;19.50;99.90
42715;DHT22;28351;51.480;5.706;2022-10-16T11:01:14;19.60;99.90
42715;DHT22;28351;51.480;5.706;2022-10-16T11:06:40;18.80;99.90
42715;DHT22;28351;51.480;5.706;2022-10-16T11:09:19;18.90;99.90
42715;DHT22;28351;51.480;5.706;2022-10-16T11:11:59;19.30;99.90
42715;DHT22;28351;51.480;5.706;2022-10-16T11:14:38;19.40;99.90
42715;DHT22;28351;51.480;5.706;2022-10-16T11:17:19;19.10;99.90
42715;DHT22;28351;51.480;5.706;2022-10-16T11:22:56;18.20;99.90
42715;DHT22;28351;51.480;5.706;2022-10-16T11:25:32;19.10;99.90
42715;DHT22;28351;51.480;5.706;2022-10-16T11:28:42;18.70;99.90
42715;DHT22;28351;51.480;5.706;2022-10-16T11:31:14;21.10;99.90
42715;DHT22;28351;51.480;5.706;2022-10-16T11:42:08;22.30;99.90
42715;DHT22;28351;51.480;5.706;2022-10-16T11:49:55;24.50;99.90
42715;DHT22;28351;51.480;5.706;2022-10-16T11:52:38;24.80;99.90
42715;DHT22;28351;51.480;5.706;2022-10-16T11:57:33;28.60;99.90
42715;DHT22;28351;51.480;5.706;2022-10-16T12:05:18;30.80;97.50
42715;DHT22;28351;51.480;5.706;2022-10-16T12:07:43;29.20;98.20
42715;DHT22;28351;51.480;5.706;2022-10-16T12:10:22;28.60;98.90
42715;DHT22;28351;51.480;5.706;2022-10-16T12:12:48;29.60;97.70
42715;DHT22;28351;51.480;5.706;2022-10-16T12:15:19;30.50;97.50
42715;DHT22;28351;51.480;5.706;2022-10-16T12:17:45;30.10;97.80
42715;DHT22;28351;51.480;5.706;2022-10-16T12:22:36;29.80;97.40
42715;DHT22;28351;51.480;5.706;2022-10-16T12:25:17;28.80;97.50
42715;DHT22;28351;51.480;5.706;2022-10-16T12:27:44;29.40;97.00
42715;DHT22;28351;51.480;5.706;2022-10-16T12:30:14;29.70;97.00
42715;DHT22;28351;51.480;5.706;2022-10-16T12:32:45;29.20;97.30
42715;DHT22;28351;51.480;5.706;2022-10-16T12:35:19;27.90;98.10
42715;DHT22;28351;51.480;5.706;2022-10-16T12:37:45;27.60;98.70
42715;DHT22;28351;51.480;5.706;2022-10-16T12:40:27;28.60;97.50
42715;DHT22;28351;51.480;5.706;2022-10-16T12:42:53;26.50;98.90
42715;DHT22;28351;51.480;5.706;2022-10-16T12:45:32;27.00;99.10
42715;DHT22;28351;51.480;5.706;2022-10-16T12:48:02;26.30;99.10
42715;DHT22;28351;51.480;5.706;2022-10-16T12:52:53;27.00;99.40
42715;DHT22;28351;51.480;5.706;2022-10-16T12:55:19;28.60;98.40
42715;DHT22;28351;51.480;5.706;2022-10-16T13:00:33;25.40;99.90
42715;DHT22;28351;51.480;5.706;2022-10-16T13:05:50;22.40;99.90
42715;DHT22;28351;51.480;5.706;2022-10-16T13:11:24;23.40;99.90
42715;DHT22;28351;51.480;5.706;2022-10-16T13:14:08;22.40;99.90
42715;DHT22;28351;51.480;5.706;2022-10-16T13:26:47;24.10;99.90
42715;DHT22;28351;51.480;5.706;2022-10-16T13:29:14;23.60;99.90
42715;DHT22;28351;51.480;5.706;2022-10-16T13:31:40;24.10;99.90
42715;DHT22;28351;51.480;5.706;2022-10-16T13:34:11;25.50;99.90
42715;DHT22;28351;51.480;5.706;2022-10-16T13:36:45;24.90;99.90
42715;DHT22;28351;51.480;5.706;2022-10-16T13:39:12;24.10;99.90
42715;DHT22;28351;51.480;5.706;2022-10-16T13:41:38;23.80;99.90
42715;DHT22;28351;51.480;5.706;2022-10-16T13:44:04;23.50;99.90
42715;DHT22;28351;51.480;5.706;2022-10-16T13:46:30;22.90;99.90
42715;DHT22;28351;51.480;5.706;2022-10-16T13:49:00;22.20;99.90
42715;DHT22;28351;51.480;5.706;2022-10-16T13:51:26;21.40;99.90
42715;DHT22;28351;51.480;5.706;2022-10-16T13:53:52;21.40;99.90
42715;DHT22;28351;51.480;5.706;2022-10-16T13:56:19;21.40;99.90
42715;DHT22;28351;51.480;5.706;2022-10-16T13:58:44;21.30;99.90
42715;DHT22;28351;51.480;5.706;2022-10-16T14:01:18;21.00;99.90
42715;DHT22;28351;51.480;5.706;2022-10-16T14:03:44;20.90;99.90
42715;DHT22;28351;51.480;5.706;2022-10-16T14:06:11;20.60;99.90
42715;DHT22;28351;51.480;5.706;2022-10-16T14:08:41;20.40;99.90
42715;DHT22;28351;51.480;5.706;2022-10-16T14:11:07;20.20;99.90
42715;DHT22;28351;51.480;5.706;2022-10-16T14:13:54;20.00;99.90
42715;DHT22;28351;51.480;5.706;2022-10-16T14:16:19;19.90;99.90
42715;DHT22;28351;51.480;5.706;2022-10-16T14:18:46;19.80;99.90
42715;DHT22;28351;51.480;5.706;2022-10-16T14:21:16;19.70;99.90
42715;DHT22;28351;51.480;5.706;2022-10-16T14:23:42;19.60;99.90
42715;DHT22;28351;51.480;5.706;2022-10-16T14:28:33;19.40;99.90
42715;DHT22;28351;51.480;5.706;2022-10-16T14:31:00;19.30;99.90
42715;DHT22;28351;51.480;5.706;2022-10-16T14:36:02;19.30;99.90
42715;DHT22;28351;51.480;5.706;2022-10-16T14:38:28;19.20;99.90
42715;DHT22;28351;51.480;5.706;2022-10-16T14:40:54;19.20;99.90
42715;DHT22;28351;51.480;5.706;2022-10-16T14:43:22;19.00;99.90
42715;DHT22;28351;51.480;5.706;2022-10-16T14:45:54;19.10;99.90
42715;DHT22;28351;51.480;5.706;2022-10-16T14:48:20;19.10;99.90
42715;DHT22;28351;51.480;5.706;2022-10-16T14:50:46;19.20;99.90
42715;DHT22;28351;51.480;5.706;2022-10-16T14:53:12;19.30;99.90
42715;DHT22;28351;51.480;5.706;2022-10-16T14:55:38;19.60;99.90
42715;DHT22;28351;51.480;5.706;2022-10-16T14:58:03;19.90;99.90
42715;DHT22;28351;51.480;5.706;2022-10-16T15:00:29;20.20;99.90
42715;DHT22;28351;51.480;5.706;2022-10-16T15:02:55;20.30;99.90
42715;DHT22;28351;51.480;5.706;2022-10-16T15:05:24;20.30;99.90
42715;DHT22;28351;51.480;5.706;2022-10-16T15:07:51;20.20;99.90
42715;DHT22;28351;51.480;5.706;2022-10-16T15:10:18;20.10;99.90
42715;DHT22;28351;51.480;5.706;2022-10-16T15:12:45;20.00;99.90
42715;DHT22;28351;51.480;5.706;2022-10-16T15:15:32;19.90;99.90
42715;DHT22;28351;51.480;5.706;2022-10-16T15:17:56;19.80;99.90
42715;DHT22;28351;51.480;5.706;2022-10-16T15:20:25;19.70;99.90
42715;DHT22;28351;51.480;5.706;2022-10-16T15:22:51;19.40;99.90
42715;DHT22;28351;51.480;5.706;2022-10-16T15:28:00;19.10;99.90
42715;DHT22;28351;51.480;5.706;2022-10-16T15:30:26;19.10;99.90
42715;DHT22;28351;51.480;5.706;2022-10-16T15:32:52;18.90;99.90
42715;DHT22;28351;51.480;5.706;2022-10-16T15:35:17;18.90;99.90
42715;DHT22;28351;51.480;5.706;2022-10-16T15:37:43;18.80;99.90
42715;DHT22;28351;51.480;5.706;2022-10-16T15:40:09;18.70;99.90
42715;DHT22;28351;51.480;5.706;2022-10-16T15:42:35;18.50;99.90
42715;DHT22;28351;51.480;5.706;2022-10-16T15:45:00;18.50;99.90
42715;DHT22;28351;51.480;5.706;2022-10-16T15:47:26;18.40;99.90
42715;DHT22;28351;51.480;5.706;2022-10-16T15:49:51;18.40;99.90
42715;DHT22;28351;51.480;5.706;2022-10-16T15:52:17;18.30;99.90
42715;DHT22;28351;51.480;5.706;2022-10-16T15:54:43;18.20;99.90
42715;DHT22;28351;51.480;5.706;2022-10-16T15:57:08;18.20;99.90
42715;DHT22;28351;51.480;5.706;2022-10-16T15:59:36;18.10;99.90
42715;DHT22;28351;51.480;5.706;2022-10-16T16:02:02;18.10;99.90
42715;DHT22;28351;51.480;5.706;2022-10-16T16:04:30;18.00;99.90
42715;DHT22;28351;51.480;5.706;2022-10-16T16:06:56;18.00;99.90
42715;DHT22;28351;51.480;5.706;2022-10-16T16:09:24;17.90;99.90
42715;DHT22;28351;51.480;5.706;2022-10-16T16:11:49;17.80;99.90
42715;DHT22;28351;51.480;5.706;2022-10-16T16:14:16;17.70;99.90
42715;DHT22;28351;51.480;5.706;2022-10-16T16:16:42;17.60;99.90
42715;DHT22;28351;51.480;5.706;2022-10-16T16:19:08;17.50;99.90
42715;DHT22;28351;51.480;5.706;2022-10-16T16:21:34;17.30;99.90
42715;DHT22;28351;51.480;5.706;2022-10-16T16:24:00;17.20;99.90
42715;DHT22;28351;51.480;5.706;2022-10-16T16:26:26;17.00;99.90
42715;DHT22;28351;51.480;5.706;2022-10-16T16:28:53;16.90;99.90
42715;DHT22;28351;51.480;5.706;2022-10-16T16:31:19;16.90;99.90
42715;DHT22;28351;51.480;5.706;2022-10-16T16:33:44;16.70;99.90
42715;DHT22;28351;51.480;5.706;2022-10-16T16:36:10;16.60;99.90
42715;DHT22;28351;51.480;5.706;2022-10-16T16:38:35;16.50;99.90
42715;DHT22;28351;51.480;5.706;2022-10-16T16:41:13;16.50;99.90
42715;DHT22;28351;51.480;5.706;2022-10-16T16:43:39;16.40;99.90
42715;DHT22;28351;51.480;5.706;2022-10-16T16:46:04;16.40;99.90
42715;DHT22;28351;51.480;5.706;2022-10-16T16:48:30;16.30;99.90
42715;DHT22;28351;51.480;5.706;2022-10-16T16:51:18;16.30;99.90
42715;DHT22;28351;51.480;5.706;2022-10-16T16:53:46;16.30;99.90
42715;DHT22;28351;51.480;5.706;2022-10-16T16:56:12;16.30;99.90
42715;DHT22;28351;51.480;5.706;2022-10-16T16:58:38;16.20;99.90
42715;DHT22;28351;51.480;5.706;2022-10-16T17:01:03;16.20;99.90
42715;DHT22;28351;51.480;5.706;2022-10-16T17:03:30;16.10;99.90
42715;DHT22;28351;51.480;5.706;2022-10-16T17:05:59;16.10;99.90
42715;DHT22;28351;51.480;5.706;2022-10-16T17:08:24;16.10;99.90
42715;DHT22;28351;51.480;5.706;2022-10-16T17:10:50;16.00;99.90
42715;DHT22;28351;51.480;5.706;2022-10-16T17:13:18;16.00;99.90
42715;DHT22;28351;51.480;5.706;2022-10-16T17:15:47;16.00;99.90
42715;DHT22;28351;51.480;5.706;2022-10-16T17:18:13;15.90;99.90
42715;DHT22;28351;51.480;5.706;2022-10-16T17:20:39;15.90;99.90
42715;DHT22;28351;51.480;5.706;2022-10-16T17:23:05;15.90;99.90
42715;DHT22;28351;51.480;5.706;2022-10-16T17:25:31;15.90;99.90
42715;DHT22;28351;51.480;5.706;2022-10-16T17:27:56;15.80;99.90
42715;DHT22;28351;51.480;5.706;2022-10-16T17:30:25;15.80;99.90
42715;DHT22;28351;51.480;5.706;2022-10-16T17:32:55;15.80;99.90
42715;DHT22;28351;51.480;5.706;2022-10-16T17:35:20;15.80;99.90
42715;DHT22;28351;51.480;5.706;2022-10-16T17:37:46;15.70;99.90
42715;DHT22;28351;51.480;5.706;2022-10-16T17:40:11;15.70;99.90
42715;DHT22;28351;51.480;5.706;2022-10-16T17:42:37;15.60;99.90
42715;DHT22;28351;51.480;5.706;2022-10-16T17:45:03;15.60;99.90
42715;DHT22;28351;51.480;5.706;2022-10-16T17:47:28;15.60;99.90
42715;DHT22;28351;51.480;5.706;2022-10-16T17:49:54;15.60;99.90